Time;durP1;ratioP1;P1;durP2;ratioP2;P2;SDS_P1;SDS_P2;PMS_P1;PMS_P2;Temp;Humidity;BMP_temperature;BMP_pressure;BME280_temperature;BME280_humidity;BME280_pressure;Samples;Min_cycle;Max_cycle;Signal;HPM_P1;HPM_P2
2021/11/25 13:36:58;;;;;;;71.57;34.58;;;;;;;7.68;67.89;97240.95;1761037;79;51718;-60
2021/11/25 13:39:31;;;;;;;53.38;31.37;;;;;;;7.54;67.21;97225.95;1768644;79;21064;-60
2021/11/25 13:44:35;;;;;;;84.83;56.05;;;;;;;7.37;67.99;97232.80;1774619;79;20951;-55
2021/11/25 13:47:02;;;;;;;44.50;21.48;;;;;;;7.33;68.87;97224.44;1757623;80;21139;-55
2021/11/25 13:49:31;;;;;;;16.73;10.32;;;;;;;7.23;68.59;97216.41;1748245;80;21594;-54
2021/11/25 13:52:07;;;;;;;13.45;7.67;;;;;;;7.03;69.18;97203.31;1759569;80;21596;-57
2021/11/25 13:54:33;;;;;;;12.45;8.08;;;;;;;6.90;69.64;97202.55;1757002;80;21084;-57
2021/11/25 13:57:02;;;;;;;24.15;14.47;;;;;;;6.84;70.25;97204.22;1745903;80;21003;-58
2021/11/25 13:59:28;;;;;;;12.58;8.85;;;;;;;6.85;70.50;97205.82;1782576;79;21111;-57
2021/11/25 14:01:57;;;;;;;24.50;11.70;;;;;;;6.85;70.61;97201.78;1747601;80;21038;-57
2021/11/25 14:04:28;;;;;;;15.53;9.88;;;;;;;6.89;70.77;97204.17;1765155;80;21557;-57
2021/11/25 14:07:11;;;;;;;34.80;17.67;;;;;;;6.91;71.26;97204.16;1768037;80;21057;-57
2021/11/25 14:09:39;;;;;;;41.63;20.15;;;;;;;6.88;71.13;97197.98;1759199;80;21846;-57
2021/11/25 14:12:06;;;;;;;269.87;111.77;;;;;;;6.81;71.01;97198.02;1761264;79;20974;-57
2021/11/25 14:14:39;;;;;;;201.62;88.20;;;;;;;6.79;71.24;97197.75;1754879;81;21705;-57
2021/11/25 14:17:13;;;;;;;287.52;108.25;;;;;;;6.75;71.21;97189.97;1757949;80;21009;-57
2021/11/25 14:19:40;;;;;;;421.22;167.40;;;;;;;6.67;71.35;97187.04;1770609;79;20993;-56
2021/11/25 14:22:21;;;;;;;260.68;115.50;;;;;;;6.57;71.49;97178.43;1768549;80;21338;-57
2021/11/25 14:24:49;;;;;;;112.12;56.40;;;;;;;6.46;71.57;97184.39;1769846;80;20974;-57
2021/11/25 14:30:11;;;;;;;91.60;39.92;;;;;;;6.33;71.87;97186.32;1764724;79;21049;-57
2021/11/25 14:32:51;;;;;;;148.02;58.60;;;;;;;6.29;71.71;97183.09;1756803;80;20998;-57
2021/11/25 14:35:37;;;;;;;270.15;96.87;;;;;;;6.18;72.09;97179.08;1774258;79;22007;-57
2021/11/25 14:38:09;;;;;;;192.55;69.58;;;;;;;6.12;72.32;97173.97;1769570;79;21038;-56
2021/11/25 14:40:36;;;;;;;182.62;68.62;;;;;;;6.05;72.64;97177.47;1772626;79;21025;-57
2021/11/25 14:43:12;;;;;;;346.30;125.87;;;;;;;5.98;72.89;97175.05;1759675;79;21453;-57
2021/11/25 14:45:43;;;;;;;257.73;102.80;;;;;;;5.89;73.30;97182.02;1778249;79;21565;-57
2021/11/25 14:48:26;;;;;;;245.15;109.70;;;;;;;5.77;73.25;97186.33;1792158;79;21383;-56
2021/11/25 14:51:00;;;;;;;154.53;74.87;;;;;;;5.64;73.51;97178.81;1760684;80;21189;-57
2021/11/25 14:53:40;;;;;;;138.80;65.32;;;;;;;5.54;73.87;97181.47;1755259;80;21107;-57
2021/11/25 14:56:24;;;;;;;102.05;48.70;;;;;;;5.44;73.68;97173.41;1747436;80;21542;-57
2021/11/25 14:59:04;;;;;;;169.87;82.50;;;;;;;5.32;73.76;97175.01;1783555;78;21253;-57
2021/11/25 15:01:44;;;;;;;117.17;57.10;;;;;;;5.16;73.95;97173.36;1767074;79;21030;-57
2021/11/25 15:04:17;;;;;;;98.60;49.05;;;;;;;5.04;73.99;97171.73;1763070;79;21041;-57
2021/11/25 15:06:45;;;;;;;130.50;57.83;;;;;;;4.93;74.52;97167.38;1763236;81;21013;-57
2021/11/25 15:09:19;;;;;;;142.18;57.65;;;;;;;4.70;78.21;97171.84;1760901;81;21067;-57
2021/11/25 15:11:47;;;;;;;134.55;59.90;;;;;;;4.63;78.10;97169.97;1773819;80;20974;-57
2021/11/25 15:14:21;;;;;;;109.90;53.42;;;;;;;4.61;76.56;97166.71;1777222;80;21186;-57
2021/11/25 15:16:48;;;;;;;118.05;54.73;;;;;;;4.55;76.29;97165.91;1783976;80;21010;-57
2021/11/25 15:19:15;;;;;;;206.45;91.72;;;;;;;4.50;76.32;97175.26;1780597;79;21028;-57
2021/11/25 15:21:42;;;;;;;188.78;82.78;;;;;;;4.42;76.79;97175.22;1774239;80;21030;-57
2021/11/25 15:24:09;;;;;;;179.25;77.95;;;;;;;4.27;76.36;97172.98;1779859;79;21060;-57
2021/11/25 15:26:35;;;;;;;223.78;98.87;;;;;;;4.19;76.54;97167.59;1783778;80;21531;-57
2021/11/25 15:29:04;;;;;;;247.88;109.85;;;;;;;4.04;77.05;97166.16;1772103;80;20874;-56
2021/11/25 15:31:28;;;;;;;286.52;138.20;;;;;;;3.92;77.03;97171.16;1779344;80;21495;-57
2021/11/25 15:33:54;;;;;;;184.85;87.88;;;;;;;3.78;79.85;97164.63;1774834;80;21495;-57
2021/11/25 15:36:21;;;;;;;115.25;58.60;;;;;;;3.71;78.75;97161.89;1770037;80;22487;-57
2021/11/25 15:38:47;;;;;;;121.42;57.23;;;;;;;3.59;79.61;97160.20;1777604;80;21383;-57
2021/11/25 15:41:13;;;;;;;138.92;60.55;;;;;;;3.52;78.74;97167.64;1778212;80;20942;-57
2021/11/25 15:43:41;;;;;;;210.55;96.82;;;;;;;3.41;79.25;97159.22;1780846;79;21523;-57
2021/11/25 15:46:09;;;;;;;303.42;123.75;;;;;;;3.28;78.40;97164.48;1774909;80;20960;-57
2021/11/25 15:48:35;;;;;;;202.40;96.72;;;;;;;3.19;79.46;97160.64;1784728;80;21440;-57
2021/11/25 15:51:01;;;;;;;200.25;97.62;;;;;;;3.04;79.64;97162.62;1779366;80;22287;-56
2021/11/25 15:53:28;;;;;;;115.28;61.68;;;;;;;2.87;80.58;97169.94;1774354;80;20998;-57
2021/11/25 15:55:55;;;;;;;86.85;48.83;;;;;;;2.75;80.28;97165.27;1772352;80;20978;-56
2021/11/25 15:58:22;;;;;;;104.40;56.98;;;;;;;2.66;79.93;97164.89;1772140;79;21459;-57
2021/11/25 16:00:49;;;;;;;83.25;46.75;;;;;;;2.58;79.80;97159.17;1772294;80;21052;-56
2021/11/25 16:03:16;;;;;;;104.90;53.10;;;;;;;2.51;81.97;97170.86;1770686;81;21539;-57
2021/11/25 16:05:42;;;;;;;102.80;53.63;;;;;;;2.53;80.62;97172.75;1772383;80;21548;-57
2021/11/25 16:08:08;;;;;;;161.90;77.92;;;;;;;2.53;80.80;97167.40;1783354;79;20871;-57
2021/11/25 16:10:34;;;;;;;166.65;86.75;;;;;;;2.50;81.84;97157.20;1775824;79;21486;-57
2021/11/25 16:13:00;;;;;;;362.57;169.60;;;;;;;2.37;81.39;97162.91;1770732;79;21240;-57
2021/11/25 16:15:27;;;;;;;306.43;152.62;;;;;;;2.35;81.40;97168.23;1773204;80;21324;-57
2021/11/25 16:17:53;;;;;;;235.90;125.10;;;;;;;2.27;82.07;97174.81;1782019;80;21056;-56
2021/11/25 16:20:19;;;;;;;221.15;116.12;;;;;;;2.23;81.22;97170.50;1779722;80;21077;-57
2021/11/25 16:22:45;;;;;;;190.07;102.65;;;;;;;2.20;81.02;97165.63;1776310;79;21534;-57
2021/11/25 16:25:11;;;;;;;298.55;143.25;;;;;;;2.17;80.81;97169.33;1772088;80;20973;-57
2021/11/25 16:27:37;;;;;;;396.73;194.75;;;;;;;2.05;81.09;97160.09;1774669;80;21149;-56
2021/11/25 16:30:08;;;;;;;325.22;168.10;;;;;;;2.00;80.72;97169.36;1771156;81;20865;-56
2021/11/25 16:32:34;;;;;;;310.57;154.12;;;;;;;1.94;83.55;97165.80;1762524;80;21534;-56
2021/11/25 16:35:01;;;;;;;173.70;87.75;;;;;;;1.91;83.68;97172.98;1782364;79;21514;-56
2021/11/25 16:37:27;;;;;;;274.50;130.85;;;;;;;1.77;85.93;97167.67;1762103;80;21031;-56
2021/11/25 16:39:53;;;;;;;136.00;65.32;;;;;;;1.73;83.89;97163.89;1763395;81;22392;-57
2021/11/25 16:42:20;;;;;;;94.60;48.48;;;;;;;1.63;84.87;97167.21;1766485;79;21089;-57
2021/11/25 16:44:46;;;;;;;153.65;75.47;;;;;;;1.58;83.17;97169.79;1766645;80;20981;-57
2021/11/25 16:47:29;;;;;;;170.57;84.45;;;;;;;1.54;82.90;97178.02;1783658;80;21053;-57
2021/11/25 16:49:43;;;;;;;202.78;97.60;;;;;;;1.56;82.95;97175.09;1766494;80;21025;-57
2021/11/25 16:52:10;;;;;;;256.77;132.87;;;;;;;1.53;83.14;97165.69;1757640;80;21574;-57
2021/11/25 16:54:36;;;;;;;280.80;142.93;;;;;;;1.41;83.20;97179.13;1763886;80;20994;-56
2021/11/25 16:57:03;;;;;;;302.52;161.43;;;;;;;1.35;84.05;97181.42;1764301;79;22136;-56
2021/11/25 16:59:31;;;;;;;309.05;162.82;;;;;;;1.25;83.83;97177.24;1764830;81;21029;-57
2021/11/25 17:01:57;;;;;;;284.90;154.32;;;;;;;1.24;82.92;97178.30;1769031;81;20967;-57
2021/11/25 17:04:23;;;;;;;177.15;87.47;;;;;;;1.19;86.01;97166.19;1768204;79;21314;-56
2021/11/25 17:06:49;;;;;;;219.30;118.77;;;;;;;1.17;84.43;97164.81;1764080;80;20994;-56
2021/11/25 17:09:15;;;;;;;286.82;161.50;;;;;;;1.07;84.12;97169.45;1763936;79;22174;-57
2021/11/25 17:11:41;;;;;;;284.65;146.65;;;;;;;1.07;83.48;97172.12;1763666;80;20918;-56
2021/11/25 17:14:07;;;;;;;285.13;150.82;;;;;;;1.05;83.95;97167.03;1764668;81;21010;-57
2021/11/25 17:16:33;;;;;;;212.82;112.65;;;;;;;0.93;84.07;97166.78;1780844;80;22364;-57
2021/11/25 17:18:59;;;;;;;178.50;100.07;;;;;;;0.69;89.82;97160.22;1753616;81;20976;-57
2021/11/25 17:21:26;;;;;;;193.82;106.97;;;;;;;0.67;90.07;97164.96;1762579;80;20937;-57
2021/11/25 17:23:52;;;;;;;212.75;120.00;;;;;;;0.71;88.51;97166.65;1785751;79;21041;-56
2021/11/25 17:26:18;;;;;;;176.30;97.55;;;;;;;0.69;88.95;97168.75;1785886;79;21009;-56
2021/11/25 17:28:47;;;;;;;227.70;125.58;;;;;;;0.69;87.08;97170.89;1763022;80;21688;-56
2021/11/25 17:31:12;;;;;;;322.67;177.80;;;;;;;0.72;86.29;97178.41;1763199;81;21387;-57
2021/11/25 17:33:38;;;;;;;285.65;162.70;;;;;;;0.72;85.80;97173.07;1761178;79;20903;-56
2021/11/25 17:36:05;;;;;;;294.35;160.52;;;;;;;0.68;87.08;97171.91;1777014;80;20874;-57
2021/11/25 17:38:31;;;;;;;286.25;138.47;;;;;;;0.72;85.90;97166.93;1746726;81;21061;-56
2021/11/25 17:40:58;;;;;;;305.52;138.65;;;;;;;0.67;87.61;97163.63;1772067;81;21573;-57
2021/11/25 17:43:25;;;;;;;248.28;119.72;;;;;;;0.66;86.36;97165.20;1748209;80;21005;-57
2021/11/25 17:45:55;;;;;;;241.50;126.70;;;;;;;0.68;87.92;97173.77;1764442;80;20981;-57
2021/11/25 17:48:19;;;;;;;208.30;105.00;;;;;;;0.69;86.42;97180.75;1746760;81;21001;-57
2021/11/25 17:50:45;;;;;;;231.30;115.37;;;;;;;0.65;87.08;97175.59;1773149;80;20954;-56
2021/11/25 17:53:11;;;;;;;223.35;113.35;;;;;;;0.56;86.75;97180.48;1786645;80;22268;-57
2021/11/25 17:55:37;;;;;;;210.55;100.33;;;;;;;0.54;86.17;97167.91;1764776;80;21005;-56
2021/11/25 17:58:03;;;;;;;189.47;98.85;;;;;;;0.49;87.86;97163.80;1764409;79;20894;-56
2021/11/25 18:00:29;;;;;;;220.10;107.67;;;;;;;0.48;86.64;97164.33;1764021;81;21001;-57
2021/11/25 18:02:55;;;;;;;212.10;106.55;;;;;;;0.44;87.96;97161.05;1764358;79;20998;-56
2021/11/25 18:05:21;;;;;;;223.85;112.83;;;;;;;0.43;86.76;97168.23;1763819;81;21569;-57
2021/11/25 18:07:47;;;;;;;233.38;124.67;;;;;;;0.43;86.46;97158.91;1764246;79;21242;-56
2021/11/25 18:10:13;;;;;;;222.15;119.00;;;;;;;0.34;85.97;97168.81;1752543;81;21550;-56
2021/11/25 18:12:40;;;;;;;217.90;110.20;;;;;;;0.34;86.51;97178.14;1715978;83;21049;-57
2021/11/25 18:15:08;;;;;;;192.60;101.45;;;;;;;0.28;88.14;97174.58;1756146;81;21094;-56
2021/11/25 18:17:34;;;;;;;199.07;96.00;;;;;;;0.25;88.67;97171.03;1784865;80;21486;-57
2021/11/25 18:20:00;;;;;;;184.15;98.62;;;;;;;0.24;87.73;97158.75;1751449;81;21008;-56
2021/11/25 18:22:26;;;;;;;180.57;88.20;;;;;;;0.23;88.02;97169.94;1751595;80;21017;-56
2021/11/25 18:24:53;;;;;;;167.07;83.90;;;;;;;0.26;88.27;97168.68;1761275;80;21028;-56
2021/11/25 18:27:19;;;;;;;153.95;75.22;;;;;;;0.28;89.84;97166.58;1723853;82;21101;-56
2021/11/25 18:29:45;;;;;;;176.07;88.00;;;;;;;0.24;89.71;97164.09;1761746;80;21598;-57
2021/11/25 18:32:12;;;;;;;182.22;93.72;;;;;;;0.26;88.34;97168.68;1749615;80;21436;-56
2021/11/25 18:34:38;;;;;;;176.75;89.00;;;;;;;0.28;87.77;97169.25;1788486;79;21577;-57
2021/11/25 18:37:05;;;;;;;190.70;102.78;;;;;;;0.24;88.15;97173.41;1779161;80;21030;-57
2021/11/25 18:39:33;;;;;;;212.30;107.12;;;;;;;0.20;87.40;97181.08;1772337;81;21029;-56
2021/11/25 18:42:01;;;;;;;217.57;110.48;;;;;;;0.12;87.76;97180.09;1772452;79;21480;-56
2021/11/25 18:44:27;;;;;;;208.90;105.75;;;;;;;-0.01;88.85;97182.98;1770968;80;20981;-56
2021/11/25 18:46:53;;;;;;;210.78;105.40;;;;;;;-0.01;87.72;97183.80;1772376;81;20929;-56
2021/11/25 18:49:20;;;;;;;207.65;110.72;;;;;;;0.03;87.84;97185.49;1771897;79;21504;-56
2021/11/25 18:51:47;;;;;;;223.07;111.83;;;;;;;0.06;87.45;97183.69;1775226;80;21413;-56
2021/11/25 18:54:14;;;;;;;199.50;101.78;;;;;;;0.07;87.64;97188.48;1784765;79;21083;-56
2021/11/25 18:56:40;;;;;;;213.45;107.15;;;;;;;0.07;87.27;97184.49;1773296;79;20955;-56
2021/11/25 18:59:07;;;;;;;291.27;143.52;;;;;;;0.03;87.25;97172.17;1771439;79;21118;-56
2021/11/25 19:01:33;;;;;;;336.77;164.45;;;;;;;-0.09;87.55;97171.34;1771685;81;20984;-56
2021/11/25 19:03:59;;;;;;;243.35;118.08;;;;;;;-0.20;88.72;97168.17;1775345;79;21642;-56
2021/11/25 19:06:25;;;;;;;202.50;101.92;;;;;;;-0.25;88.62;97172.07;1785922;80;22424;-57
2021/11/25 19:08:51;;;;;;;193.70;94.92;;;;;;;-0.31;87.82;97168.47;1782377;79;20974;-57
2021/11/25 19:11:17;;;;;;;209.40;100.07;;;;;;;-0.36;88.29;97173.66;1772601;81;20881;-56
2021/11/25 19:13:43;;;;;;;206.72;98.75;;;;;;;-0.36;89.00;97169.67;1771560;79;20933;-57
2021/11/25 19:16:12;;;;;;;177.30;88.35;;;;;;;-0.34;88.91;97177.73;1772645;80;21106;-56
2021/11/25 19:18:37;;;;;;;203.40;93.78;;;;;;;-0.27;88.40;97172.80;1772316;79;21554;-56
2021/11/25 19:21:03;;;;;;;217.30;99.25;;;;;;;-0.24;87.72;97180.34;1772189;81;20882;-56
2021/11/25 19:23:29;;;;;;;205.77;97.57;;;;;;;-0.26;87.29;97180.55;1772299;79;21033;-56
2021/11/25 19:25:55;;;;;;;218.17;100.02;;;;;;;-0.31;88.93;97186.59;1772295;80;20978;-57
2021/11/25 19:28:23;;;;;;;237.88;115.12;;;;;;;-0.36;89.47;97186.45;1772593;80;21028;-56
2021/11/25 19:30:49;;;;;;;230.45;113.00;;;;;;;-0.35;89.00;97183.27;1785823;79;22503;-57
2021/11/25 19:33:15;;;;;;;242.18;120.10;;;;;;;-0.43;90.88;97176.43;1785819;80;21647;-56
2021/11/25 19:35:41;;;;;;;268.20;133.72;;;;;;;-0.43;90.47;97179.61;1785852;79;20978;-57
2021/11/25 19:38:07;;;;;;;260.70;132.27;;;;;;;-0.42;90.71;97185.25;1773092;79;20978;-56
2021/11/25 19:40:33;;;;;;;271.98;132.80;;;;;;;-0.39;89.84;97185.59;1772372;81;20838;-56
2021/11/25 19:43:00;;;;;;;238.22;122.07;;;;;;;-0.39;90.12;97192.25;1772343;79;21018;-57
2021/11/25 19:45:26;;;;;;;232.60;116.80;;;;;;;-0.38;90.14;97183.22;1776853;80;20966;-56
2021/11/25 19:47:54;;;;;;;238.90;111.70;;;;;;;-0.39;90.40;97184.78;1786074;80;20922;-56
2021/11/25 19:50:20;;;;;;;236.52;118.08;;;;;;;-0.42;90.40;97182.07;1785742;80;20996;-56
2021/11/25 19:52:46;;;;;;;243.25;120.70;;;;;;;-0.44;89.53;97181.47;1777205;79;21518;-56
2021/11/25 19:55:15;;;;;;;240.82;121.75;;;;;;;-0.42;89.10;97181.26;1750715;81;21375;-56
2021/11/25 19:57:42;;;;;;;236.37;122.53;;;;;;;-0.40;88.94;97181.84;1772395;79;21002;-56
2021/11/25 20:00:12;;;;;;;249.77;121.97;;;;;;;-0.45;89.02;97189.69;1772172;80;21029;-56
2021/11/25 20:02:39;;;;;;;228.05;114.03;;;;;;;-0.46;88.84;97193.39;1772378;79;21471;-57
2021/11/25 20:05:07;;;;;;;228.83;120.95;;;;;;;-0.45;88.80;97197.15;1772217;81;21037;-57
2021/11/25 20:07:34;;;;;;;246.00;118.43;;;;;;;-0.39;88.62;97194.10;1772768;79;22290;-56
2021/11/25 20:10:01;;;;;;;226.27;117.55;;;;;;;-0.38;88.51;97200.52;1772203;80;21034;-56
2021/11/25 20:12:27;;;;;;;231.72;120.53;;;;;;;-0.38;88.57;97197.86;1772686;79;20982;-56
2021/11/25 20:14:53;;;;;;;236.55;121.57;;;;;;;-0.42;88.90;97194.57;1772198;81;20918;-56
2021/11/25 20:17:20;;;;;;;227.25;114.47;;;;;;;-0.58;90.18;97202.17;1772625;79;20894;-57
2021/11/25 20:19:46;;;;;;;223.00;118.00;;;;;;;-0.77;91.01;97199.80;1772198;81;22337;-56
2021/11/25 20:22:12;;;;;;;211.82;104.67;;;;;;;-0.79;90.63;97194.70;1772255;79;21613;-56
2021/11/25 20:24:38;;;;;;;177.68;91.63;;;;;;;-0.82;90.58;97189.04;1772381;80;20878;-56
2021/11/25 20:27:04;;;;;;;177.02;94.50;;;;;;;-0.81;89.92;97194.65;1772491;80;21520;-56
2021/11/25 20:29:30;;;;;;;200.32;98.20;;;;;;;-0.82;89.82;97195.69;1772507;80;20990;-56
2021/11/25 20:31:56;;;;;;;174.87;90.38;;;;;;;-0.75;89.49;97200.40;1772372;81;21581;-57
2021/11/25 20:34:22;;;;;;;188.32;98.85;;;;;;;-0.67;89.31;97192.09;1772470;81;20933;-56
2021/11/25 20:36:48;;;;;;;209.47;96.00;;;;;;;-0.69;89.29;97191.48;1761457;81;20882;-56
2021/11/25 20:39:14;;;;;;;182.57;94.25;;;;;;;-0.68;88.98;97187.29;1759050;80;20854;-57
2021/11/25 20:41:44;;;;;;;206.82;101.40;;;;;;;-0.64;88.75;97191.11;1786136;80;21026;-56
2021/11/25 20:44:08;;;;;;;221.68;104.32;;;;;;;-0.62;88.57;97202.33;1785422;79;22251;-56
2021/11/25 20:46:34;;;;;;;201.80;95.25;;;;;;;-0.62;88.32;97205.50;1785909;79;21493;-56
2021/11/25 20:49:00;;;;;;;200.22;97.90;;;;;;;-0.61;88.27;97199.14;1785527;79;20962;-56
2021/11/25 20:51:26;;;;;;;213.77;106.25;;;;;;;-0.78;90.05;97194.99;1785849;79;20966;-56
2021/11/25 20:53:52;;;;;;;235.63;112.50;;;;;;;-0.84;90.22;97191.13;1784022;79;20851;-56
2021/11/25 20:56:18;;;;;;;209.83;108.78;;;;;;;-0.83;89.59;97195.40;1785740;79;21547;-56
2021/11/25 20:58:44;;;;;;;192.95;99.03;;;;;;;-0.84;89.16;97188.46;1785882;80;20862;-56
2021/11/25 21:01:12;;;;;;;197.15;96.53;;;;;;;-0.84;90.25;97200.44;1785720;80;20938;-56
2021/11/25 21:03:38;;;;;;;187.37;89.07;;;;;;;-0.88;90.67;97198.72;1781193;79;21060;-56
2021/11/25 21:06:04;;;;;;;178.15;87.25;;;;;;;-0.88;89.92;97196.87;1780805;80;20891;-56
2021/11/25 21:08:30;;;;;;;184.93;96.47;;;;;;;-0.97;91.41;97195.58;1784386;80;21543;-56
2021/11/25 21:10:56;;;;;;;191.85;92.55;;;;;;;-0.94;91.02;97195.14;1772339;80;20978;-56
2021/11/25 21:13:21;;;;;;;197.45;94.47;;;;;;;-0.91;92.13;97197.86;1772238;79;20977;-56
2021/11/25 21:15:47;;;;;;;177.40;91.67;;;;;;;-0.90;92.33;97189.65;1772126;80;21030;-56
2021/11/25 21:18:14;;;;;;;181.50;91.57;;;;;;;-0.90;92.24;97185.66;1772312;79;21573;-56
2021/11/25 21:20:40;;;;;;;177.32;90.10;;;;;;;-0.88;92.32;97189.41;1772284;80;21761;-56
2021/11/25 21:23:06;;;;;;;199.20;98.67;;;;;;;-0.85;91.80;97186.33;1772232;81;20961;-57
2021/11/25 21:25:34;;;;;;;191.18;94.72;;;;;;;-0.88;92.74;97186.23;1772327;81;21030;-56
2021/11/25 21:28:00;;;;;;;208.02;103.07;;;;;;;-0.82;92.52;97183.20;1772499;79;20982;-57
2021/11/25 21:30:26;;;;;;;196.55;91.75;;;;;;;-0.87;91.98;97185.20;1772132;80;21486;-55
2021/11/25 21:32:53;;;;;;;178.40;84.50;;;;;;;-0.87;91.06;97188.37;1772599;79;21600;-56
2021/11/25 21:35:20;;;;;;;168.07;84.40;;;;;;;-0.90;91.93;97182.19;1751113;80;20969;-57
2021/11/25 21:37:46;;;;;;;177.00;89.35;;;;;;;-0.89;92.02;97180.63;1748811;81;21011;-57
2021/11/25 21:40:16;;;;;;;175.03;87.30;;;;;;;-0.87;92.38;97174.55;1766236;81;21451;-57
2021/11/25 21:42:44;;;;;;;177.38;91.08;;;;;;;-0.89;92.99;97171.31;1771657;79;21534;-57
2021/11/25 21:45:11;;;;;;;176.10;83.62;;;;;;;-0.89;92.66;97158.53;1772261;81;21109;-57
2021/11/25 21:47:41;;;;;;;181.60;90.22;;;;;;;-0.88;92.06;97168.95;1772524;79;21581;-57
2021/11/25 21:50:08;;;;;;;171.85;84.47;;;;;;;-0.90;91.93;97165.70;1772081;81;21159;-57
2021/11/25 21:52:34;;;;;;;182.72;85.90;;;;;;;-0.91;91.61;97165.42;1778373;80;21505;-57
2021/11/25 21:55:00;;;;;;;174.07;83.90;;;;;;;-0.94;91.65;97163.72;1786320;79;21636;-57
2021/11/25 21:57:26;;;;;;;179.68;86.02;;;;;;;-0.95;91.45;97149.61;1785710;80;21537;-57
2021/11/25 21:59:52;;;;;;;184.25;87.42;;;;;;;-1.03;91.89;97150.45;1785904;79;21432;-57
2021/11/25 22:02:18;;;;;;;163.60;82.55;;;;;;;-1.07;92.15;97156.75;1786027;80;20894;-57
2021/11/25 22:04:44;;;;;;;159.60;80.25;;;;;;;-1.10;92.42;97159.88;1786357;79;21705;-57
2021/11/25 22:07:10;;;;;;;157.97;76.87;;;;;;;-1.07;92.38;97154.61;1786107;80;21049;-57
2021/11/25 22:09:36;;;;;;;170.32;80.53;;;;;;;-1.11;92.75;97153.43;1778561;80;21453;-57
2021/11/25 22:12:02;;;;;;;192.85;89.75;;;;;;;-1.14;92.83;97155.52;1772456;79;20874;-56
2021/11/25 22:14:27;;;;;;;189.45;96.15;;;;;;;-1.06;92.71;97145.59;1772515;81;20937;-57
2021/11/25 22:16:53;;;;;;;211.28;103.85;;;;;;;-0.99;92.38;97148.45;1772459;81;20917;-57
2021/11/25 22:19:22;;;;;;;210.43;97.82;;;;;;;-0.92;91.80;97155.02;1772103;79;20984;-57
2021/11/25 22:27:04;;;;;;;178.18;84.85;;;;;;;-0.81;92.05;97165.38;1785903;79;21006;-56
2021/11/25 22:29:30;;;;;;;139.22;72.90;;;;;;;-0.78;91.85;97170.23;1786019;79;21111;-56
2021/11/25 22:31:56;;;;;;;134.12;69.12;;;;;;;-0.79;92.00;97168.10;1785879;80;20875;-56
2021/11/25 22:34:23;;;;;;;138.57;64.67;;;;;;;-0.89;92.75;97163.34;1786029;79;21554;-56
2021/11/25 22:36:49;;;;;;;141.97;66.77;;;;;;;-0.79;92.40;97169.43;1761510;79;21451;-56
2021/11/25 22:39:16;;;;;;;158.80;77.65;;;;;;;-0.74;92.21;97169.57;1760068;80;21074;-56
2021/11/25 22:41:45;;;;;;;158.18;80.87;;;;;;;-0.68;91.69;97166.00;1785849;80;20981;-56
2021/11/25 22:44:12;;;;;;;169.32;77.03;;;;;;;-0.61;91.32;97168.54;1780900;79;20986;-57
2021/11/25 22:46:38;;;;;;;228.27;111.72;;;;;;;-0.57;90.85;97167.05;1772456;81;21600;-56
2021/11/25 22:49:04;;;;;;;217.28;103.70;;;;;;;-0.66;90.59;97175.08;1772156;79;21009;-56
2021/11/25 22:51:31;;;;;;;193.22;97.20;;;;;;;-0.71;90.57;97177.08;1773865;80;21037;-56
2021/11/25 22:53:57;;;;;;;229.72;112.37;;;;;;;-0.71;90.78;97169.11;1786062;79;21487;-56
2021/11/25 22:56:23;;;;;;;219.13;110.05;;;;;;;-0.70;90.45;97173.38;1785842;80;21037;-56
2021/11/25 22:58:49;;;;;;;215.07;106.27;;;;;;;-0.76;90.45;97175.64;1780661;79;22359;-56
2021/11/25 23:01:15;;;;;;;246.68;113.15;;;;;;;-0.72;91.18;97173.33;1768089;81;20952;-57
2021/11/25 23:03:41;;;;;;;200.75;98.42;;;;;;;-0.63;90.64;97167.96;1754412;80;21029;-56
2021/11/25 23:06:07;;;;;;;227.15;108.22;;;;;;;-0.58;90.58;97171.57;1772510;81;21021;-56
2021/11/25 23:08:33;;;;;;;220.82;109.95;;;;;;;-0.61;90.45;97159.22;1772498;79;21071;-56
2021/11/25 23:11:00;;;;;;;222.75;106.37;;;;;;;-0.62;90.81;97153.61;1772293;81;22428;-56
2021/11/25 23:13:26;;;;;;;206.85;103.87;;;;;;;-0.58;91.71;97142.81;1772193;81;21036;-56
2021/11/25 23:15:52;;;;;;;180.82;88.80;;;;;;;-0.53;91.21;97137.59;1772417;80;21031;-56
2021/11/25 23:18:18;;;;;;;180.85;86.70;;;;;;;-0.47;90.68;97130.55;1772199;79;20997;-56
2021/11/25 23:20:45;;;;;;;170.05;83.80;;;;;;;-0.44;90.62;97140.73;1772448;81;21133;-56
2021/11/25 23:23:11;;;;;;;147.30;73.85;;;;;;;-0.39;91.00;97134.20;1772095;79;22475;-56
2021/11/25 23:25:38;;;;;;;152.72;76.75;;;;;;;-0.33;91.33;97125.30;1772160;80;21009;-56
2021/11/25 23:28:04;;;;;;;135.28;65.97;;;;;;;-0.30;91.33;97130.16;1772282;79;21017;-56
2021/11/25 23:30:31;;;;;;;153.65;72.65;;;;;;;-0.30;90.59;97128.30;1772396;80;21036;-56
2021/11/25 23:32:57;;;;;;;137.22;65.35;;;;;;;-0.32;90.42;97121.59;1772294;79;21032;-57
2021/11/25 23:35:23;;;;;;;138.77;73.30;;;;;;;-0.30;90.86;97119.50;1772366;81;21624;-56
2021/11/25 23:37:49;;;;;;;145.20;72.05;;;;;;;-0.25;90.42;97124.15;1747978;80;20870;-56
2021/11/25 23:40:16;;;;;;;134.07;68.62;;;;;;;-0.25;90.17;97118.82;1774162;80;21005;-57
2021/11/25 23:42:42;;;;;;;135.95;66.30;;;;;;;-0.22;90.66;97125.00;1772357;79;20994;-56
2021/11/25 23:45:09;;;;;;;139.52;65.62;;;;;;;-0.19;90.64;97121.34;1772497;80;21468;-56
2021/11/25 23:47:36;;;;;;;164.70;82.88;;;;;;;-0.17;90.96;97111.78;1772378;79;21574;-56
2021/11/25 23:50:07;;;;;;;167.75;82.82;;;;;;;-0.15;90.30;97117.19;1772436;80;21416;-57
2021/11/25 23:52:30;;;;;;;168.87;80.93;;;;;;;-0.29;90.22;97109.95;1779307;80;21043;-56
2021/11/25 23:54:57;;;;;;;178.93;85.85;;;;;;;-0.35;90.63;97110.87;1786041;79;20847;-56
2021/11/25 23:57:23;;;;;;;173.05;84.90;;;;;;;-0.37;90.37;97099.64;1785679;79;20982;-56
2021/11/25 23:59:50;;;;;;;178.00;89.97;;;;;;;-0.38;90.55;97105.20;1785925;79;21421;-56
